createdAt,value
2022-10-23T00:01:42.885Z,85.21
2022-10-23T00:04:45.640Z,84.92
2022-10-23T00:07:59.811Z,84.79
2022-10-23T00:11:10.502Z,84.79
2022-10-23T00:14:14.397Z,84.86
2022-10-23T00:17:17.082Z,84.68
2022-10-23T00:20:19.911Z,84.46
2022-10-23T00:23:23.160Z,84.53
2022-10-23T00:26:25.851Z,84.76
2022-10-23T00:29:29.171Z,84.92
2022-10-23T00:35:40.751Z,85.08
2022-10-23T00:38:43.820Z,85.01
2022-10-23T00:41:46.494Z,85.10
2022-10-23T00:44:49.020Z,85.02
2022-10-23T00:47:51.778Z,85.06
2022-10-23T00:50:54.996Z,85.11
2022-10-23T00:54:12.649Z,85.16
2022-10-23T00:57:22.492Z,85.16
2022-10-23T01:00:44.115Z,85.11
2022-10-23T01:03:47.203Z,85.32
2022-10-23T01:07:20.387Z,85.71
2022-10-23T01:10:28.852Z,85.79
2022-10-23T01:13:46.427Z,86.07
2022-10-23T01:17:03.002Z,86.24
2022-10-23T01:20:23.729Z,86.30
2022-10-23T01:23:34.726Z,85.94
2022-10-23T01:26:49.696Z,86.86
2022-10-23T01:30:07.869Z,86.92
2022-10-23T01:33:17.938Z,87.20
2022-10-23T01:36:26.968Z,87.41
2022-10-23T01:39:46.862Z,87.08
2022-10-23T01:42:57.122Z,87.03
2022-10-23T01:46:05.847Z,86.60
2022-10-23T01:49:14.581Z,87.05
2022-10-23T01:52:18.839Z,87.09
2022-10-23T01:55:24.637Z,86.90
2022-10-23T01:58:30.097Z,86.77
2022-10-23T02:01:36.568Z,86.44
2022-10-23T02:05:06.581Z,86.28
2022-10-23T02:08:09.696Z,86.28
2022-10-23T02:11:20.354Z,86.08
2022-10-23T02:14:37.908Z,86.12
2022-10-23T02:17:55.315Z,86.19
2022-10-23T02:21:05.705Z,86.32
2022-10-23T02:24:18.108Z,86.41
2022-10-23T02:27:30.511Z,86.54
2022-10-23T02:30:37.902Z,86.89
2022-10-23T02:33:41.335Z,86.93
2022-10-23T02:36:44.014Z,86.93
2022-10-23T02:39:48.309Z,86.92
2022-10-23T02:43:08.972Z,87.06
2022-10-23T02:46:25.023Z,87.55
2022-10-23T02:49:46.563Z,87.29
2022-10-23T02:52:55.519Z,88.39
2022-10-23T02:56:08.079Z,88.42
2022-10-23T02:59:12.224Z,88.14
2022-10-23T03:02:25.519Z,88.04
2022-10-23T03:05:33.022Z,88.03
2022-10-23T03:08:50.374Z,87.29
2022-10-23T03:11:54.221Z,87.38
2022-10-23T03:14:56.934Z,88.14
2022-10-23T03:18:00.912Z,88.58
2022-10-23T03:21:04.331Z,88.70
2022-10-23T03:24:11.419Z,88.31
2022-10-23T03:27:15.120Z,88.06
2022-10-23T03:30:18.072Z,87.67
2022-10-23T03:33:23.808Z,87.19
2022-10-23T03:36:26.402Z,87.46
2022-10-23T03:39:29.400Z,87.46
2022-10-23T03:42:32.436Z,87.30
2022-10-23T03:45:38.347Z,87.35
2022-10-23T03:48:42.102Z,87.45
2022-10-23T03:51:52.021Z,87.24
2022-10-23T03:54:56.240Z,87.12
2022-10-23T03:57:58.976Z,86.69
2022-10-23T04:01:01.698Z,86.41
2022-10-23T04:04:04.526Z,86.79
2022-10-23T04:07:07.267Z,86.86
2022-10-23T04:10:10.296Z,86.65
2022-10-23T04:13:13.053Z,86.41
2022-10-23T04:16:15.901Z,86.25
2022-10-23T04:19:20.076Z,86.47
2022-10-23T04:22:25.931Z,86.98
2022-10-23T04:25:30.320Z,87.15
2022-10-23T04:28:33.117Z,87.21
2022-10-23T04:31:35.837Z,87.40
2022-10-23T04:34:38.582Z,87.27
2022-10-23T04:37:41.860Z,87.15
2022-10-23T04:40:45.087Z,87.02
2022-10-23T04:43:51.284Z,86.93
2022-10-23T04:46:54.088Z,86.85
2022-10-23T04:49:59.081Z,87.22
2022-10-23T04:53:10.361Z,87.27
2022-10-23T04:56:15.094Z,87.35
2022-10-23T04:59:19.308Z,87.64
2022-10-23T05:02:22.093Z,88.14
2022-10-23T05:05:24.922Z,87.65
2022-10-23T05:08:28.554Z,87.97
2022-10-23T05:11:33.737Z,88.80
2022-10-23T05:14:39.624Z,88.80
2022-10-23T05:17:46.596Z,87.82
2022-10-23T05:20:51.874Z,88.61
2022-10-23T05:23:54.921Z,88.40
2022-10-23T05:26:57.933Z,88.61
2022-10-23T05:30:00.659Z,88.79
2022-10-23T05:33:04.461Z,88.19
2022-10-23T05:36:13.787Z,87.43
2022-10-23T05:39:17.099Z,87.83
2022-10-23T05:42:20.791Z,88.23
2022-10-23T05:45:23.743Z,89.03
2022-10-23T05:48:34.595Z,89.56
2022-10-23T05:51:40.029Z,88.30
2022-10-23T05:54:42.947Z,88.09
2022-10-23T05:57:48.180Z,88.29
2022-10-23T06:00:51.137Z,88.28
2022-10-23T06:03:56.128Z,88.45
2022-10-23T06:06:59.673Z,88.12
2022-10-23T06:10:03.799Z,88.16
2022-10-23T06:13:07.097Z,88.91
2022-10-23T06:16:10.317Z,88.34
2022-10-23T06:19:13.604Z,88.19
2022-10-23T06:22:16.929Z,88.13
2022-10-23T06:25:20.766Z,88.14
2022-10-23T06:28:27.056Z,87.95
2022-10-23T06:31:29.814Z,87.76
2022-10-23T06:34:32.830Z,87.25
2022-10-23T06:37:35.288Z,86.79
2022-10-23T06:40:39.950Z,86.12
2022-10-23T06:43:42.878Z,85.25
2022-10-23T06:46:49.843Z,84.39
2022-10-23T06:49:53.799Z,83.93
2022-10-23T06:52:57.151Z,83.53
2022-10-23T06:56:01.150Z,82.94
2022-10-23T06:59:07.960Z,82.02
2022-10-23T07:02:11.499Z,79.82
2022-10-23T07:05:14.525Z,77.33
2022-10-23T07:08:17.807Z,77.71
2022-10-23T07:11:21.600Z,78.59
2022-10-23T07:14:24.376Z,78.10
2022-10-23T07:17:29.176Z,78.58
2022-10-23T07:20:31.625Z,77.34
2022-10-23T07:23:35.484Z,76.60
2022-10-23T07:26:41.467Z,75.88
2022-10-23T07:29:46.009Z,72.32
2022-10-23T07:32:49.915Z,59.17
2022-10-23T07:35:55.255Z,52.59
2022-10-23T07:38:58.696Z,47.84
2022-10-23T07:42:01.609Z,44.36
2022-10-23T07:45:07.494Z,38.42
2022-10-23T07:48:11.463Z,34.59
2022-10-23T07:51:16.295Z,32.08
2022-10-23T07:54:19.598Z,33.66
2022-10-23T07:57:24.648Z,34.64
2022-10-23T08:00:29.679Z,34.24
2022-10-23T08:03:33.903Z,34.04
2022-10-23T08:06:38.372Z,34.19
2022-10-23T08:09:41.780Z,33.53
2022-10-23T08:12:45.311Z,32.52
2022-10-23T08:15:50.516Z,29.97
2022-10-23T08:18:55.849Z,26.29
2022-10-23T08:21:58.706Z,23.03
2022-10-23T08:25:01.433Z,19.86
2022-10-23T08:28:06.270Z,17.61
2022-10-23T08:31:15.946Z,15.93
2022-10-23T08:34:21.193Z,14.80
2022-10-23T08:37:24.991Z,13.85
2022-10-23T08:40:27.889Z,13.13
2022-10-23T08:43:46.902Z,12.54
2022-10-23T08:47:10.559Z,12.06
2022-10-23T08:53:40.212Z,11.70
2022-10-23T08:56:48.243Z,11.60
2022-10-23T09:00:14.100Z,11.45
2022-10-23T09:03:18.344Z,11.38
2022-10-23T09:06:27.047Z,11.46
2022-10-23T09:09:59.739Z,11.43
2022-10-23T09:13:21.009Z,11.83
2022-10-23T09:16:26.509Z,12.63
2022-10-23T09:19:31.320Z,13.61
2022-10-23T09:22:34.505Z,14.24
2022-10-23T09:25:39.384Z,14.34
2022-10-23T09:29:03.097Z,16.01
2022-10-23T09:32:07.169Z,18.45
2022-10-23T09:35:22.314Z,20.70
2022-10-23T09:38:39.725Z,23.29
2022-10-23T09:41:43.266Z,25.29
2022-10-23T09:44:50.942Z,29.00
2022-10-23T09:48:10.476Z,31.21
2022-10-23T09:51:19.640Z,32.67
2022-10-23T09:54:24.171Z,34.77
2022-10-23T09:57:38.183Z,35.62
2022-10-23T10:00:49.190Z,35.50
2022-10-23T10:03:53.965Z,35.19
2022-10-23T10:06:58.336Z,35.37
2022-10-23T10:10:01.369Z,35.19
2022-10-23T10:13:33.675Z,35.61
2022-10-23T10:16:54.016Z,35.88
2022-10-23T10:20:18.935Z,37.41
2022-10-23T10:23:27.532Z,37.77
2022-10-23T10:26:56.240Z,37.51
2022-10-23T10:30:13.940Z,37.18
2022-10-23T10:33:46.900Z,37.44
2022-10-23T10:36:56.021Z,38.02
2022-10-23T10:40:23.014Z,41.49
2022-10-23T10:43:50.983Z,41.59
2022-10-23T10:47:21.178Z,43.51
2022-10-23T10:50:43.883Z,43.13
2022-10-23T10:54:07.342Z,42.16
2022-10-23T10:57:24.405Z,42.97
2022-10-23T11:00:29.909Z,45.18
2022-10-23T11:03:45.895Z,46.39
2022-10-23T11:06:51.833Z,45.40
2022-10-23T11:09:58.932Z,44.45
2022-10-23T11:13:02.717Z,43.29
2022-10-23T11:16:35.990Z,42.63
2022-10-23T11:19:50.324Z,42.11
2022-10-23T11:23:04.447Z,42.56
2022-10-23T11:26:23.203Z,43.57
2022-10-23T11:29:45.672Z,43.01
2022-10-23T11:33:10.187Z,43.94
2022-10-23T11:36:32.606Z,43.10
2022-10-23T11:39:39.265Z,43.17
2022-10-23T11:42:43.076Z,42.63
2022-10-23T11:45:45.943Z,43.11
2022-10-23T11:48:49.817Z,43.12
2022-10-23T11:52:05.371Z,44.61
2022-10-23T11:55:21.014Z,45.25
2022-10-23T11:58:32.015Z,47.21
2022-10-23T12:01:45.682Z,48.17
2022-10-23T12:04:52.424Z,48.51
2022-10-23T12:07:58.001Z,50.81
2022-10-23T12:11:01.197Z,50.10
2022-10-23T12:14:03.794Z,49.75
2022-10-23T12:17:37.704Z,49.26
2022-10-23T12:20:46.108Z,49.10
2022-10-23T12:23:54.813Z,48.58
2022-10-23T12:27:13.624Z,48.77
2022-10-23T12:30:29.006Z,49.56
2022-10-23T12:34:13.207Z,50.47
2022-10-23T12:37:18.978Z,50.53
2022-10-23T12:40:22.519Z,50.30
2022-10-23T12:43:37.180Z,49.33
2022-10-23T12:46:43.476Z,47.81
2022-10-23T12:49:50.410Z,48.32
2022-10-23T12:53:03.115Z,51.97
2022-10-23T12:56:06.670Z,55.36
2022-10-23T12:59:14.627Z,58.02
2022-10-23T13:02:21.965Z,57.69
2022-10-23T13:05:25.636Z,57.55
2022-10-23T13:08:41.815Z,58.11
2022-10-23T13:11:46.481Z,59.75
2022-10-23T13:15:21.201Z,60.95
2022-10-23T13:18:23.761Z,60.97
2022-10-23T13:21:28.610Z,60.35
2022-10-23T13:24:31.825Z,60.33
2022-10-23T13:27:34.971Z,60.56
2022-10-23T13:30:40.441Z,61.30
2022-10-23T13:33:46.137Z,61.57
2022-10-23T13:37:01.131Z,61.88
2022-10-23T13:40:10.139Z,62.37
2022-10-23T13:43:18.919Z,63.03
2022-10-23T13:46:25.602Z,63.10
2022-10-23T13:49:28.008Z,63.69
2022-10-23T13:52:31.076Z,64.42
2022-10-23T13:55:34.115Z,65.27
2022-10-23T13:58:37.166Z,66.30
2022-10-23T14:01:40.367Z,66.84
2022-10-23T14:04:43.431Z,67.86
2022-10-23T14:07:46.134Z,67.95
2022-10-23T14:10:49.636Z,68.43
2022-10-23T14:13:52.819Z,68.74
2022-10-23T14:16:55.663Z,68.69
2022-10-23T14:19:58.143Z,69.10
2022-10-23T14:23:01.012Z,69.52
2022-10-23T14:26:15.348Z,69.57
2022-10-23T14:29:23.096Z,69.69
2022-10-23T14:32:26.698Z,69.37
2022-10-23T14:35:29.625Z,70.30
2022-10-23T14:38:32.117Z,71.09
2022-10-23T14:41:35.132Z,71.32
2022-10-23T14:47:41.754Z,71.81
2022-10-23T14:50:46.772Z,72.53
2022-10-23T14:53:58.774Z,73.06
2022-10-23T14:57:01.661Z,73.10
2022-10-23T15:00:06.482Z,73.36
2022-10-23T15:03:09.229Z,73.36
2022-10-23T15:06:16.097Z,73.39
2022-10-23T15:09:20.924Z,73.37
2022-10-23T15:12:24.581Z,73.08
2022-10-23T15:15:26.956Z,73.33
2022-10-23T15:18:30.005Z,73.26
2022-10-23T15:21:32.465Z,73.18
2022-10-23T15:24:35.794Z,73.03
2022-10-23T15:27:38.275Z,72.92
2022-10-23T15:30:43.427Z,72.84
2022-10-23T15:33:45.861Z,72.82
2022-10-23T15:36:49.315Z,72.87
2022-10-23T15:39:51.795Z,72.93
2022-10-23T15:42:54.620Z,73.00
2022-10-23T15:45:57.244Z,73.08
2022-10-23T15:49:00.277Z,73.14
2022-10-23T15:52:04.853Z,73.23
2022-10-23T15:55:11.665Z,73.40
2022-10-23T15:58:14.139Z,73.41
2022-10-23T16:01:17.847Z,73.65
2022-10-23T16:04:21.135Z,73.70
2022-10-23T16:07:23.948Z,73.71
2022-10-23T16:10:28.407Z,73.64
2022-10-23T16:13:30.899Z,73.67
2022-10-23T16:16:33.889Z,73.65
2022-10-23T16:19:36.527Z,73.48
2022-10-23T16:22:41.427Z,73.39
2022-10-23T16:25:46.981Z,73.48
2022-10-23T16:28:54.307Z,73.47
2022-10-23T16:31:58.387Z,73.43
2022-10-23T16:35:01.348Z,73.03
2022-10-23T16:38:10.062Z,72.98
2022-10-23T16:41:12.788Z,73.21
2022-10-23T16:44:16.064Z,72.27
2022-10-23T16:47:20.689Z,72.71
2022-10-23T16:50:23.544Z,72.46
2022-10-23T16:53:29.046Z,72.87
2022-10-23T16:56:32.258Z,72.82
2022-10-23T16:59:37.006Z,72.67
2022-10-23T17:02:39.744Z,73.06
2022-10-23T17:05:42.485Z,72.69
2022-10-23T17:08:46.191Z,72.98
2022-10-23T17:11:51.119Z,73.14
2022-10-23T17:14:54.070Z,72.72
2022-10-23T17:17:57.990Z,72.59
2022-10-23T17:21:01.140Z,72.43
2022-10-23T17:24:05.075Z,72.43
2022-10-23T17:27:08.039Z,72.89
2022-10-23T17:30:12.793Z,72.71
2022-10-23T17:33:16.115Z,72.89
2022-10-23T17:36:21.605Z,73.01
2022-10-23T17:39:28.075Z,72.95
2022-10-23T17:42:31.889Z,73.22
2022-10-23T17:45:35.728Z,72.92
2022-10-23T17:48:39.603Z,73.26
2022-10-23T17:51:42.258Z,73.44
2022-10-23T17:54:45.276Z,73.76
2022-10-23T17:57:48.977Z,74.00
2022-10-23T18:00:52.781Z,74.04
2022-10-23T18:04:01.081Z,74.05
2022-10-23T18:07:04.119Z,74.00
2022-10-23T18:10:08.431Z,74.25
2022-10-23T18:13:11.357Z,74.38
2022-10-23T18:16:15.571Z,74.69
2022-10-23T18:19:18.595Z,74.84
2022-10-23T18:22:21.996Z,74.80
2022-10-23T18:25:24.476Z,74.81
2022-10-23T18:28:29.298Z,74.96
2022-10-23T18:31:31.781Z,74.86
2022-10-23T18:34:34.779Z,75.31
2022-10-23T18:37:41.627Z,75.24
2022-10-23T18:40:44.836Z,75.43
2022-10-23T18:43:48.129Z,75.66
2022-10-23T18:46:51.750Z,75.68
2022-10-23T18:49:54.551Z,75.63
2022-10-23T18:52:57.652Z,75.98
2022-10-23T18:56:01.296Z,76.57
2022-10-23T18:59:07.483Z,76.30
2022-10-23T19:02:12.028Z,76.32
2022-10-23T19:05:15.028Z,76.82
2022-10-23T19:08:17.508Z,77.16
2022-10-23T19:11:22.964Z,77.09
2022-10-23T19:14:27.766Z,77.51
2022-10-23T19:17:32.718Z,77.81
2022-10-23T19:20:36.209Z,77.67
2022-10-23T19:23:42.176Z,77.76
2022-10-23T19:26:44.970Z,77.95
2022-10-23T19:29:51.792Z,77.95
2022-10-23T19:32:54.776Z,78.06
2022-10-23T19:36:00.235Z,78.00
2022-10-23T19:39:04.837Z,77.99
2022-10-23T19:42:09.012Z,77.86
2022-10-23T19:45:14.440Z,77.75
2022-10-23T19:48:17.439Z,77.59
2022-10-23T19:51:19.980Z,77.56
2022-10-23T19:54:23.499Z,77.51
2022-10-23T19:57:25.975Z,77.51
2022-10-23T20:00:30.330Z,77.48
2022-10-23T20:03:33.020Z,77.42
2022-10-23T20:06:36.469Z,77.53
2022-10-23T20:09:39.499Z,77.49
2022-10-23T20:12:47.489Z,77.55
2022-10-23T20:16:00.037Z,77.61
2022-10-23T20:19:07.028Z,77.72
2022-10-23T20:22:10.672Z,77.67
2022-10-23T20:25:13.604Z,77.74
2022-10-23T20:28:16.359Z,77.74
2022-10-23T20:31:21.546Z,77.60
2022-10-23T20:34:25.339Z,77.71
2022-10-23T20:37:28.041Z,77.63
2022-10-23T20:40:30.788Z,77.83
2022-10-23T20:43:36.482Z,77.86
2022-10-23T20:46:39.327Z,78.07
2022-10-23T20:49:41.955Z,78.13
2022-10-23T20:52:45.009Z,78.15
2022-10-23T20:55:47.625Z,78.21
2022-10-23T20:58:50.608Z,78.33
2022-10-23T21:01:54.044Z,78.46
2022-10-23T21:04:56.875Z,78.47
2022-10-23T21:07:59.625Z,78.54
2022-10-23T21:11:02.429Z,78.59
2022-10-23T21:14:05.701Z,78.41
2022-10-23T21:17:10.651Z,78.50
2022-10-23T21:20:13.704Z,78.70
2022-10-23T21:23:16.491Z,78.91
2022-10-23T21:26:21.681Z,78.77
2022-10-23T21:29:24.527Z,78.80
2022-10-23T21:32:27.149Z,78.94
2022-10-23T21:35:30.500Z,78.91
2022-10-23T21:38:35.740Z,78.91
2022-10-23T21:41:38.843Z,79.03
2022-10-23T21:44:41.461Z,78.77
2022-10-23T21:47:44.246Z,79.32
2022-10-23T21:50:47.173Z,79.12
2022-10-23T21:53:51.796Z,78.83
2022-10-23T21:59:57.632Z,78.85
2022-10-23T22:03:00.267Z,78.89
2022-10-23T22:06:02.953Z,78.75
2022-10-23T22:09:06.875Z,78.66
2022-10-23T22:12:11.554Z,78.67
2022-10-23T22:15:14.272Z,78.54
2022-10-23T22:18:17.473Z,78.56
2022-10-23T22:21:23.531Z,78.64
2022-10-23T22:24:26.321Z,78.73
2022-10-23T22:27:29.014Z,78.84
2022-10-23T22:30:36.330Z,78.88
2022-10-23T22:33:38.983Z,78.91
2022-10-23T22:36:41.735Z,78.94
2022-10-23T22:39:44.376Z,78.94
2022-10-23T22:42:47.262Z,78.95
2022-10-23T22:45:50.144Z,79.13
2022-10-23T22:48:54.460Z,79.53
2022-10-23T22:51:57.188Z,79.75
2022-10-23T22:54:59.878Z,79.77
2022-10-23T22:58:02.606Z,79.96
2022-10-23T23:01:10.400Z,80.04
2022-10-23T23:04:37.728Z,79.98
2022-10-23T23:07:40.773Z,80.08
2022-10-23T23:10:43.382Z,80.21
2022-10-23T23:13:48.177Z,80.27
2022-10-23T23:16:51.120Z,80.42
2022-10-23T23:19:53.848Z,80.62
2022-10-23T23:22:56.474Z,80.80
2022-10-23T23:25:59.178Z,80.97
2022-10-23T23:29:01.775Z,81.12
2022-10-23T23:32:06.216Z,81.19
2022-10-23T23:35:09.358Z,81.26
2022-10-23T23:38:12.932Z,81.34
2022-10-23T23:41:18.339Z,81.54
2022-10-23T23:44:21.002Z,81.63
2022-10-23T23:47:23.717Z,81.59
2022-10-23T23:50:27.972Z,81.82
2022-10-23T23:53:30.694Z,81.84
2022-10-23T23:56:33.343Z,81.79
2022-10-23T23:59:38.116Z,81.72
